Hillsdale, New Jersey
Current Conditions -  °F | °C
As of 12:51 PM on Monday 24 Nov 2014 (Local Time) from KTEB Reporting Station
Broken Clouds Broken Clouds  
Wind Chill: 71°   Ceiling: 3700
Heat Index: 71°   Visibility: 10mi
Dew Point: 58°   Wind: 20mph
Humidity: 63%   Direction: 200°SSW
Pressure: 29.58"   Gusts: NA
Location:  41°N, 74.04°W
Report Text: KTEB 241751Z 20017KT 10SM SCT030 BKN037 22/14 A2958 RMK AO2 SLP017 60001 T02170144 10217 20161 57026
Loading
Personal Weather Stations






























Interactive Weather Map New forecast layout! Learn more

10-Day Weather Forecast

Advertisements
Track Severe Weather on mobile